sensor_id;sensor_type;location;lat;lon;timestamp;pressure;altitude;pressure_sealevel;temperature;humidity
19286;BME280;9776;50.798;6.430;2022-10-23T00:01:20;100055.06;;;13.81;75.60
19286;BME280;9776;50.798;6.430;2022-10-23T00:03:50;100050.59;;;13.82;75.73
19286;BME280;9776;50.798;6.430;2022-10-23T00:06:17;100045.63;;;13.79;75.60
19286;BME280;9776;50.798;6.430;2022-10-23T00:08:45;100041.31;;;13.78;76.02
19286;BME280;9776;50.798;6.430;2022-10-23T00:11:15;100041.53;;;13.76;75.71
19286;BME280;9776;50.798;6.430;2022-10-23T00:13:43;100050.00;;;13.72;76.24
19286;BME280;9776;50.798;6.430;2022-10-23T00:16:10;100051.00;;;13.71;76.10
19286;BME280;9776;50.798;6.430;2022-10-23T00:18:38;100052.63;;;13.72;76.07
19286;BME280;9776;50.798;6.430;2022-10-23T00:21:06;100060.00;;;13.61;76.69
19286;BME280;9776;50.798;6.430;2022-10-23T00:23:33;100066.19;;;13.54;77.00
19286;BME280;9776;50.798;6.430;2022-10-23T00:26:00;100067.59;;;13.42;77.25
19286;BME280;9776;50.798;6.430;2022-10-23T00:28:27;100054.19;;;13.35;77.55
19286;BME280;9776;50.798;6.430;2022-10-23T00:30:54;100059.63;;;13.42;77.63
19286;BME280;9776;50.798;6.430;2022-10-23T00:33:21;100048.50;;;13.46;77.32
19286;BME280;9776;50.798;6.430;2022-10-23T00:35:49;100041.31;;;13.55;77.01
19286;BME280;9776;50.798;6.430;2022-10-23T00:38:15;100034.50;;;13.60;76.90
19286;BME280;9776;50.798;6.430;2022-10-23T00:40:42;100046.22;;;13.66;77.04
19286;BME280;9776;50.798;6.430;2022-10-23T00:43:16;100036.56;;;13.73;76.88
19286;BME280;9776;50.798;6.430;2022-10-23T00:45:43;100043.00;;;13.79;76.88
19286;BME280;9776;50.798;6.430;2022-10-23T00:48:10;100043.47;;;13.82;77.10
19286;BME280;9776;50.798;6.430;2022-10-23T00:50:36;100033.31;;;13.86;77.29
19286;BME280;9776;50.798;6.430;2022-10-23T00:53:05;100029.03;;;13.85;77.30
19286;BME280;9776;50.798;6.430;2022-10-23T00:55:33;100030.84;;;13.84;77.24
19286;BME280;9776;50.798;6.430;2022-10-23T00:58:00;100036.97;;;13.85;77.70
19286;BME280;9776;50.798;6.430;2022-10-23T01:00:29;100034.50;;;13.83;77.76
19286;BME280;9776;50.798;6.430;2022-10-23T01:02:56;100043.28;;;13.84;77.75
19286;BME280;9776;50.798;6.430;2022-10-23T01:05:27;100045.63;;;13.79;77.86
19286;BME280;9776;50.798;6.430;2022-10-23T01:08:00;100042.31;;;13.77;78.13
19286;BME280;9776;50.798;6.430;2022-10-23T01:10:33;100041.53;;;13.76;78.19
19286;BME280;9776;50.798;6.430;2022-10-23T01:13:04;100033.56;;;13.76;78.10
19286;BME280;9776;50.798;6.430;2022-10-23T01:15:36;100030.25;;;13.74;77.99
19286;BME280;9776;50.798;6.430;2022-10-23T01:18:09;100021.94;;;13.77;78.14
19286;BME280;9776;50.798;6.430;2022-10-23T01:20:42;100018.44;;;13.77;77.96
19286;BME280;9776;50.798;6.430;2022-10-23T01:23:39;100019.63;;;13.74;78.17
19286;BME280;9776;50.798;6.430;2022-10-23T01:26:25;100026.06;;;13.80;78.08
19286;BME280;9776;50.798;6.430;2022-10-23T01:28:59;100009.44;;;13.86;78.25
19286;BME280;9776;50.798;6.430;2022-10-23T01:31:34;100006.41;;;13.89;78.16
19286;BME280;9776;50.798;6.430;2022-10-23T01:34:07;100013.75;;;13.87;78.44
19286;BME280;9776;50.798;6.430;2022-10-23T01:36:37;100013.75;;;13.87;78.39
19286;BME280;9776;50.798;6.430;2022-10-23T01:39:07;100010.72;;;13.90;78.29
19286;BME280;9776;50.798;6.430;2022-10-23T01:41:38;100001.13;;;13.89;78.49
19286;BME280;9776;50.798;6.430;2022-10-23T01:44:12;99996.81;;;13.88;78.62
19286;BME280;9776;50.798;6.430;2022-10-23T01:46:41;99989.31;;;13.91;78.47
19286;BME280;9776;50.798;6.430;2022-10-23T01:49:10;99983.38;;;13.89;78.42
19286;BME280;9776;50.798;6.430;2022-10-23T01:51:40;99985.50;;;13.94;78.74
19286;BME280;9776;50.798;6.430;2022-10-23T01:54:12;99981.81;;;13.95;78.55
19286;BME280;9776;50.798;6.430;2022-10-23T01:56:43;99974.69;;;13.95;78.63
19286;BME280;9776;50.798;6.430;2022-10-23T01:59:15;99972.69;;;13.97;78.88
19286;BME280;9776;50.798;6.430;2022-10-23T02:01:46;99970.69;;;13.99;78.84
19286;BME280;9776;50.798;6.430;2022-10-23T02:04:22;99966.66;;;14.03;79.08
19286;BME280;9776;50.798;6.430;2022-10-23T02:06:50;99969.16;;;14.05;78.82
19286;BME280;9776;50.798;6.430;2022-10-23T02:09:17;99966.13;;;14.08;78.99
19286;BME280;9776;50.798;6.430;2022-10-23T02:11:51;99962.28;;;14.10;79.13
19286;BME280;9776;50.798;6.430;2022-10-23T02:14:30;99961.56;;;14.16;78.79
19286;BME280;9776;50.798;6.430;2022-10-23T02:17:06;99957.53;;;14.20;78.87
19286;BME280;9776;50.798;6.430;2022-10-23T02:19:40;99952.69;;;14.24;79.09
19286;BME280;9776;50.798;6.430;2022-10-23T02:22:11;99949.47;;;14.29;79.13
19286;BME280;9776;50.798;6.430;2022-10-23T02:24:42;99955.28;;;14.32;79.26
19286;BME280;9776;50.798;6.430;2022-10-23T02:27:13;99939.63;;;14.37;79.52
19286;BME280;9776;50.798;6.430;2022-10-23T02:29:46;99945.22;;;14.42;79.18
19286;BME280;9776;50.798;6.430;2022-10-23T02:32:14;99944.88;;;14.45;79.41
19286;BME280;9776;50.798;6.430;2022-10-23T02:34:43;99947.69;;;14.44;79.55
19286;BME280;9776;50.798;6.430;2022-10-23T02:37:09;99947.31;;;14.47;79.75
19286;BME280;9776;50.798;6.430;2022-10-23T02:39:36;99936.06;;;14.45;79.75
19286;BME280;9776;50.798;6.430;2022-10-23T02:42:08;99930.56;;;14.46;79.61
19286;BME280;9776;50.798;6.430;2022-10-23T02:44:49;99931.59;;;14.45;79.80
19286;BME280;9776;50.798;6.430;2022-10-23T02:47:29;99923.78;;;14.44;79.88
19286;BME280;9776;50.798;6.430;2022-10-23T02:50:03;99923.63;;;14.45;79.77
19286;BME280;9776;50.798;6.430;2022-10-23T02:52:37;99915.81;;;14.44;79.70
19286;BME280;9776;50.798;6.430;2022-10-23T02:55:19;99915.34;;;14.40;79.83
19286;BME280;9776;50.798;6.430;2022-10-23T02:57:51;99918.47;;;14.44;79.64
19286;BME280;9776;50.798;6.430;2022-10-23T03:00:22;99915.81;;;14.44;79.70
19286;BME280;9776;50.798;6.430;2022-10-23T03:02:53;99905.75;;;14.39;79.96
19286;BME280;9776;50.798;6.430;2022-10-23T03:05:23;99908.41;;;14.39;79.98
19286;BME280;9776;50.798;6.430;2022-10-23T03:07:51;99908.22;;;14.41;80.10
19286;BME280;9776;50.798;6.430;2022-10-23T03:10:19;99906.22;;;14.43;79.93
19286;BME280;9776;50.798;6.430;2022-10-23T03:12:45;99896.41;;;14.43;80.11
19286;BME280;9776;50.798;6.430;2022-10-23T03:15:13;99891.75;;;14.45;80.10
19286;BME280;9776;50.798;6.430;2022-10-23T03:17:42;99895.03;;;14.47;80.09
19286;BME280;9776;50.798;6.430;2022-10-23T03:20:09;99910.78;;;14.49;80.27
19286;BME280;9776;50.798;6.430;2022-10-23T03:22:36;99912.63;;;14.48;80.17
19286;BME280;9776;50.798;6.430;2022-10-23T03:25:04;99902.19;;;14.47;80.49
19286;BME280;9776;50.798;6.430;2022-10-23T03:27:31;99898.53;;;14.48;80.22
19286;BME280;9776;50.798;6.430;2022-10-23T03:29:57;99898.06;;;14.44;80.40
19286;BME280;9776;50.798;6.430;2022-10-23T03:32:24;99900.09;;;14.42;80.54
19286;BME280;9776;50.798;6.430;2022-10-23T03:34:52;99892.50;;;14.39;80.33
19286;BME280;9776;50.798;6.430;2022-10-23T03:37:19;99886.53;;;14.37;80.63
19286;BME280;9776;50.798;6.430;2022-10-23T03:39:45;99877.09;;;14.35;80.69
19286;BME280;9776;50.798;6.430;2022-10-23T03:42:12;99879.66;;;14.28;80.61
19286;BME280;9776;50.798;6.430;2022-10-23T03:44:39;99886.78;;;14.28;80.62
19286;BME280;9776;50.798;6.430;2022-10-23T03:47:05;99890.06;;;14.30;80.52
19286;BME280;9776;50.798;6.430;2022-10-23T03:49:34;99879.81;;;14.27;80.57
19286;BME280;9776;50.798;6.430;2022-10-23T03:52:02;99888.63;;;14.27;80.60
19286;BME280;9776;50.798;6.430;2022-10-23T03:54:29;99874.72;;;14.25;80.39
19286;BME280;9776;50.798;6.430;2022-10-23T03:56:56;99878.72;;;14.21;80.74
19286;BME280;9776;50.798;6.430;2022-10-23T03:59:23;99883.03;;;14.22;80.54
19286;BME280;9776;50.798;6.430;2022-10-23T04:01:50;99882.38;;;14.20;80.53
19286;BME280;9776;50.798;6.430;2022-10-23T04:04:17;99884.03;;;14.21;80.50
19286;BME280;9776;50.798;6.430;2022-10-23T04:06:43;99871.75;;;14.20;80.47
19286;BME280;9776;50.798;6.430;2022-10-23T04:09:11;99862.34;;;14.17;80.40
19286;BME280;9776;50.798;6.430;2022-10-23T04:11:38;99857.22;;;14.16;80.65
19286;BME280;9776;50.798;6.430;2022-10-23T04:14:04;99857.59;;;14.13;80.43
19286;BME280;9776;50.798;6.430;2022-10-23T04:16:31;99850.00;;;14.10;80.73
19286;BME280;9776;50.798;6.430;2022-10-23T04:18:58;99848.06;;;14.04;80.58
19286;BME280;9776;50.798;6.430;2022-10-23T04:21:24;99839.66;;;14.00;80.72
19286;BME280;9776;50.798;6.430;2022-10-23T04:23:51;99845.31;;;13.97;80.65
19286;BME280;9776;50.798;6.430;2022-10-23T04:26:19;99836.47;;;13.90;81.08
19286;BME280;9776;50.798;6.430;2022-10-23T04:28:46;99833.34;;;13.87;81.15
19286;BME280;9776;50.798;6.430;2022-10-23T04:31:12;99834.06;;;13.81;81.08
19286;BME280;9776;50.798;6.430;2022-10-23T04:33:39;99838.91;;;13.77;80.87
19286;BME280;9776;50.798;6.430;2022-10-23T04:36:06;99833.16;;;13.74;81.34
19286;BME280;9776;50.798;6.430;2022-10-23T04:38:33;99828.22;;;13.71;81.23
19286;BME280;9776;50.798;6.430;2022-10-23T04:41:00;99831.66;;;13.71;80.99
19286;BME280;9776;50.798;6.430;2022-10-23T04:43:28;99836.53;;;13.68;81.36
19286;BME280;9776;50.798;6.430;2022-10-23T04:45:55;99834.59;;;13.61;81.06
19286;BME280;9776;50.798;6.430;2022-10-23T04:48:21;99846.41;;;13.59;81.20
19286;BME280;9776;50.798;6.430;2022-10-23T04:50:54;99843.91;;;13.57;81.39
19286;BME280;9776;50.798;6.430;2022-10-23T04:53:21;99833.50;;;13.56;81.40
19286;BME280;9776;50.798;6.430;2022-10-23T04:55:49;99824.53;;;13.57;81.35
19286;BME280;9776;50.798;6.430;2022-10-23T04:58:16;99816.78;;;13.55;81.41
19286;BME280;9776;50.798;6.430;2022-10-23T05:00:44;99817.97;;;13.53;81.21
19286;BME280;9776;50.798;6.430;2022-10-23T05:03:12;99813.66;;;13.52;81.27
19286;BME280;9776;50.798;6.430;2022-10-23T05:05:39;99819.94;;;13.51;81.43
19286;BME280;9776;50.798;6.430;2022-10-23T05:08:06;99813.44;;;13.53;81.42
19286;BME280;9776;50.798;6.430;2022-10-23T05:10:33;99817.75;;;13.54;81.10
19286;BME280;9776;50.798;6.430;2022-10-23T05:13:00;99816.66;;;13.49;81.52
19286;BME280;9776;50.798;6.430;2022-10-23T05:15:27;99809.88;;;13.46;81.60
19286;BME280;9776;50.798;6.430;2022-10-23T05:17:57;99805.94;;;13.42;81.45
19286;BME280;9776;50.798;6.430;2022-10-23T05:20:27;99803.22;;;13.36;81.92
19286;BME280;9776;50.798;6.430;2022-10-23T05:22:57;99805.03;;;13.35;82.05
19286;BME280;9776;50.798;6.430;2022-10-23T05:25:25;99807.22;;;13.32;81.90
19286;BME280;9776;50.798;6.430;2022-10-23T05:27:52;99797.53;;;13.24;81.89
19286;BME280;9776;50.798;6.430;2022-10-23T05:30:18;99789.22;;;13.27;81.79
19286;BME280;9776;50.798;6.430;2022-10-23T05:32:45;99786.38;;;13.29;81.65
19286;BME280;9776;50.798;6.430;2022-10-23T05:35:17;99790.13;;;13.34;81.66
19286;BME280;9776;50.798;6.430;2022-10-23T05:37:46;99778.53;;;13.35;81.50
19286;BME280;9776;50.798;6.430;2022-10-23T05:40:14;99775.03;;;13.35;81.30
19286;BME280;9776;50.798;6.430;2022-10-23T05:42:41;99768.91;;;13.34;81.20
19286;BME280;9776;50.798;6.430;2022-10-23T05:45:08;99775.22;;;13.33;81.30
19286;BME280;9776;50.798;6.430;2022-10-23T05:47:35;99780.16;;;13.36;81.28
19286;BME280;9776;50.798;6.430;2022-10-23T05:50:02;99766.09;;;13.36;81.51
19286;BME280;9776;50.798;6.430;2022-10-23T05:52:30;99773.69;;;13.39;81.24
19286;BME280;9776;50.798;6.430;2022-10-23T05:54:56;99766.53;;;13.39;81.12
19286;BME280;9776;50.798;6.430;2022-10-23T05:57:23;99764.72;;;13.40;81.06
19286;BME280;9776;50.798;6.430;2022-10-23T05:59:50;99764.56;;;13.41;81.23
19286;BME280;9776;50.798;6.430;2022-10-23T06:02:16;99768.81;;;13.42;81.14
19286;BME280;9776;50.798;6.430;2022-10-23T06:04:43;99762.53;;;13.43;81.15
19286;BME280;9776;50.798;6.430;2022-10-23T06:07:10;99752.41;;;13.47;81.25
19286;BME280;9776;50.798;6.430;2022-10-23T06:09:38;99748.56;;;13.49;81.20
19286;BME280;9776;50.798;6.430;2022-10-23T06:12:04;99753.50;;;13.52;81.19
19286;BME280;9776;50.798;6.430;2022-10-23T06:14:31;99748.34;;;13.51;81.26
19286;BME280;9776;50.798;6.430;2022-10-23T06:16:58;99741.88;;;13.53;81.22
19286;BME280;9776;50.798;6.430;2022-10-23T06:19:24;99739.88;;;13.55;81.06
19286;BME280;9776;50.798;6.430;2022-10-23T06:21:51;99745.44;;;13.60;80.86
19286;BME280;9776;50.798;6.430;2022-10-23T06:24:18;99746.53;;;13.66;80.97
19286;BME280;9776;50.798;6.430;2022-10-23T06:26:46;99743.97;;;13.73;80.73
19286;BME280;9776;50.798;6.430;2022-10-23T06:29:12;99749.38;;;13.79;80.79
19286;BME280;9776;50.798;6.430;2022-10-23T06:31:39;99737.38;;;13.83;80.72
19286;BME280;9776;50.798;6.430;2022-10-23T06:34:06;99736.66;;;13.89;80.72
19286;BME280;9776;50.798;6.430;2022-10-23T06:36:32;99720.72;;;13.89;80.36
19286;BME280;9776;50.798;6.430;2022-10-23T06:38:59;99719.53;;;13.92;80.64
19286;BME280;9776;50.798;6.430;2022-10-23T06:41:25;99715.69;;;13.94;80.35
19286;BME280;9776;50.798;6.430;2022-10-23T06:43:54;99718.16;;;13.96;80.23
19286;BME280;9776;50.798;6.430;2022-10-23T06:46:20;99720.00;;;13.95;80.18
19286;BME280;9776;50.798;6.430;2022-10-23T06:48:47;99715.16;;;13.99;80.42
19286;BME280;9776;50.798;6.430;2022-10-23T06:51:16;99721.28;;;13.99;80.30
19286;BME280;9776;50.798;6.430;2022-10-23T06:53:43;99715.16;;;13.99;80.39
19286;BME280;9776;50.798;6.430;2022-10-23T06:56:11;99710.84;;;13.98;80.31
19286;BME280;9776;50.798;6.430;2022-10-23T06:58:38;99718.34;;;13.94;80.35
19286;BME280;9776;50.798;6.430;2022-10-23T07:01:09;99713.03;;;13.94;80.10
19286;BME280;9776;50.798;6.430;2022-10-23T07:03:36;99712.22;;;13.94;80.14
19286;BME280;9776;50.798;6.430;2022-10-23T07:06:07;99705.53;;;13.98;80.01
19286;BME280;9776;50.798;6.430;2022-10-23T07:08:34;99717.13;;;13.97;79.91
19286;BME280;9776;50.798;6.430;2022-10-23T07:11:02;99722.44;;;13.97;80.01
19286;BME280;9776;50.798;6.430;2022-10-23T07:13:29;99719.63;;;13.98;79.93
19286;BME280;9776;50.798;6.430;2022-10-23T07:15:56;99708.25;;;14.04;79.83
19286;BME280;9776;50.798;6.430;2022-10-23T07:18:24;99729.13;;;14.07;79.72
19286;BME280;9776;50.798;6.430;2022-10-23T07:20:56;99725.91;;;14.12;79.53
19286;BME280;9776;50.798;6.430;2022-10-23T07:23:23;99734.94;;;14.17;79.31
19286;BME280;9776;50.798;6.430;2022-10-23T07:25:55;99728.06;;;14.23;79.41
19286;BME280;9776;50.798;6.430;2022-10-23T07:28:21;99717.06;;;14.26;79.29
19286;BME280;9776;50.798;6.430;2022-10-23T07:30:55;99712.41;;;14.28;79.24
19286;BME280;9776;50.798;6.430;2022-10-23T07:33:22;99722.31;;;14.34;79.08
19286;BME280;9776;50.798;6.430;2022-10-23T07:35:50;99717.88;;;14.41;79.16
19286;BME280;9776;50.798;6.430;2022-10-23T07:38:16;99710.16;;;14.46;79.05
19286;BME280;9776;50.798;6.430;2022-10-23T07:40:43;99702.47;;;14.51;78.67
19286;BME280;9776;50.798;6.430;2022-10-23T07:43:10;99698.84;;;14.59;78.54
19286;BME280;9776;50.798;6.430;2022-10-23T07:45:36;99696.91;;;14.67;78.35
19286;BME280;9776;50.798;6.430;2022-10-23T07:48:04;99701.69;;;14.78;78.36
19286;BME280;9776;50.798;6.430;2022-10-23T07:50:30;99708.75;;;14.93;77.94
19286;BME280;9776;50.798;6.430;2022-10-23T07:52:59;99709.28;;;15.09;77.68
19286;BME280;9776;50.798;6.430;2022-10-23T07:55:25;99712.88;;;15.23;77.19
19286;BME280;9776;50.798;6.430;2022-10-23T07:57:52;99721.56;;;15.38;76.81
19286;BME280;9776;50.798;6.430;2022-10-23T08:00:19;99721.69;;;15.51;76.47
19286;BME280;9776;50.798;6.430;2022-10-23T08:02:45;99722.34;;;15.60;76.09
19286;BME280;9776;50.798;6.430;2022-10-23T08:05:12;99724.88;;;15.74;75.53
19286;BME280;9776;50.798;6.430;2022-10-23T08:07:39;99713.88;;;15.84;75.19
19286;BME280;9776;50.798;6.430;2022-10-23T08:10:08;99707.16;;;15.95;75.22
19286;BME280;9776;50.798;6.430;2022-10-23T08:12:36;99711.47;;;16.02;74.83
19286;BME280;9776;50.798;6.430;2022-10-23T08:15:03;99710.50;;;16.10;74.73
19286;BME280;9776;50.798;6.430;2022-10-23T08:17:30;99705.38;;;16.15;74.38
19286;BME280;9776;50.798;6.430;2022-10-23T08:19:57;99698.25;;;16.22;74.18
19286;BME280;9776;50.798;6.430;2022-10-23T08:22:23;99700.91;;;16.28;73.92
19286;BME280;9776;50.798;6.430;2022-10-23T08:24:50;99701.31;;;16.32;73.88
19286;BME280;9776;50.798;6.430;2022-10-23T08:27:18;99702.97;;;16.39;73.57
19286;BME280;9776;50.798;6.430;2022-10-23T08:29:45;99690.06;;;16.43;73.71
19286;BME280;9776;50.798;6.430;2022-10-23T08:32:12;99686.59;;;16.49;73.44
19286;BME280;9776;50.798;6.430;2022-10-23T08:34:38;99676.41;;;16.59;73.40
19286;BME280;9776;50.798;6.430;2022-10-23T08:37:06;99673.75;;;16.72;73.04
19286;BME280;9776;50.798;6.430;2022-10-23T08:39:32;99673.13;;;16.83;72.69
19286;BME280;9776;50.798;6.430;2022-10-23T08:41:59;99679.91;;;16.92;72.46
19286;BME280;9776;50.798;6.430;2022-10-23T08:44:30;99664.50;;;17.08;71.88
19286;BME280;9776;50.798;6.430;2022-10-23T08:47:02;99663.03;;;17.18;71.46
19286;BME280;9776;50.798;6.430;2022-10-23T08:49:39;99653.56;;;17.29;71.56
19286;BME280;9776;50.798;6.430;2022-10-23T08:52:16;99654.16;;;17.44;71.05
19286;BME280;9776;50.798;6.430;2022-10-23T08:54:56;99654.59;;;17.54;70.68
19286;BME280;9776;50.798;6.430;2022-10-23T08:57:27;99645.91;;;17.72;70.27
19286;BME280;9776;50.798;6.430;2022-10-23T09:00:03;99646.22;;;17.88;69.97
19286;BME280;9776;50.798;6.430;2022-10-23T09:02:34;99639.94;;;18.07;69.45
19286;BME280;9776;50.798;6.430;2022-10-23T09:05:01;99629.19;;;18.21;68.76
19286;BME280;9776;50.798;6.430;2022-10-23T09:07:36;99626.22;;;18.35;68.56
19286;BME280;9776;50.798;6.430;2022-10-23T09:10:23;99617.13;;;18.43;68.12
19286;BME280;9776;50.798;6.430;2022-10-23T09:12:58;99614.78;;;18.53;67.86
19286;BME280;9776;50.798;6.430;2022-10-23T09:15:30;99603.50;;;18.51;67.50
19286;BME280;9776;50.798;6.430;2022-10-23T09:18:10;99607.25;;;18.43;67.49
19286;BME280;9776;50.798;6.430;2022-10-23T09:20:39;99609.56;;;18.33;67.85
19286;BME280;9776;50.798;6.430;2022-10-23T09:23:12;99609.84;;;18.25;67.68
19286;BME280;9776;50.798;6.430;2022-10-23T09:25:41;99604.09;;;18.22;67.95
19286;BME280;9776;50.798;6.430;2022-10-23T09:28:15;99594.41;;;18.27;67.92
19286;BME280;9776;50.798;6.430;2022-10-23T09:30:45;99598.34;;;18.25;67.86
19286;BME280;9776;50.798;6.430;2022-10-23T09:33:15;99596.72;;;18.24;67.98
19286;BME280;9776;50.798;6.430;2022-10-23T09:35:53;99586.66;;;18.19;68.08
19286;BME280;9776;50.798;6.430;2022-10-23T09:38:29;99582.16;;;18.20;67.86
19286;BME280;9776;50.798;6.430;2022-10-23T09:40:58;99580.28;;;18.20;68.01
19286;BME280;9776;50.798;6.430;2022-10-23T09:43:25;99574.97;;;18.20;68.12
19286;BME280;9776;50.798;6.430;2022-10-23T09:45:59;99567.53;;;18.22;67.87
19286;BME280;9776;50.798;6.430;2022-10-23T09:48:27;99575.50;;;18.29;67.69
19286;BME280;9776;50.798;6.430;2022-10-23T09:50:55;99572.78;;;18.35;67.23
19286;BME280;9776;50.798;6.430;2022-10-23T09:53:29;99581.16;;;18.39;67.00
19286;BME280;9776;50.798;6.430;2022-10-23T09:55:59;99573.16;;;18.39;67.20
19286;BME280;9776;50.798;6.430;2022-10-23T09:58:31;99572.56;;;18.37;66.83
19286;BME280;9776;50.798;6.430;2022-10-23T10:01:00;99563.31;;;18.33;67.18
19286;BME280;9776;50.798;6.430;2022-10-23T10:03:27;99560.50;;;18.28;67.15
19286;BME280;9776;50.798;6.430;2022-10-23T10:05:56;99557.84;;;18.28;67.20
19286;BME280;9776;50.798;6.430;2022-10-23T10:08:27;99559.63;;;18.34;67.43
19286;BME280;9776;50.798;6.430;2022-10-23T10:11:00;99550.59;;;18.35;67.26
19286;BME280;9776;50.798;6.430;2022-10-23T10:14:03;99541.25;;;18.19;67.60
19286;BME280;9776;50.798;6.430;2022-10-23T10:16:40;99548.63;;;18.24;67.75
19286;BME280;9776;50.798;6.430;2022-10-23T10:19:17;99554.84;;;18.18;67.86
19286;BME280;9776;50.798;6.430;2022-10-23T10:21:51;99536.34;;;18.16;67.70
19286;BME280;9776;50.798;6.430;2022-10-23T10:24:26;99534.34;;;18.11;67.83
19286;BME280;9776;50.798;6.430;2022-10-23T10:27:00;99541.13;;;18.07;67.86
19286;BME280;9776;50.798;6.430;2022-10-23T10:29:43;99534.38;;;18.05;68.02
19286;BME280;9776;50.798;6.430;2022-10-23T10:32:25;99532.53;;;18.05;68.07
19286;BME280;9776;50.798;6.430;2022-10-23T10:35:16;99517.94;;;18.08;68.20
19286;BME280;9776;50.798;6.430;2022-10-23T10:37:54;99516.66;;;18.10;67.88
19286;BME280;9776;50.798;6.430;2022-10-23T10:40:29;99529.16;;;18.17;67.75
19286;BME280;9776;50.798;6.430;2022-10-23T10:43:10;99525.66;;;18.16;67.96
19286;BME280;9776;50.798;6.430;2022-10-23T10:45:44;99527.25;;;18.24;67.59
19286;BME280;9776;50.798;6.430;2022-10-23T10:48:36;99516.41;;;18.19;67.87
19286;BME280;9776;50.798;6.430;2022-10-23T10:51:07;99500.38;;;18.19;68.02
19286;BME280;9776;50.798;6.430;2022-10-23T10:53:44;99502.00;;;18.20;67.90
19286;BME280;9776;50.798;6.430;2022-10-23T10:56:15;99514.06;;;18.29;68.20
19286;BME280;9776;50.798;6.430;2022-10-23T10:58:46;99498.56;;;18.37;67.84
19286;BME280;9776;50.798;6.430;2022-10-23T11:01:19;99490.41;;;18.57;67.56
19286;BME280;9776;50.798;6.430;2022-10-23T11:03:55;99474.97;;;18.77;67.25
19286;BME280;9776;50.798;6.430;2022-10-23T11:06:27;99484.25;;;18.93;66.73
19286;BME280;9776;50.798;6.430;2022-10-23T11:08:56;99475.47;;;19.04;66.44
19286;BME280;9776;50.798;6.430;2022-10-23T11:11:30;99467.72;;;19.14;65.99
19286;BME280;9776;50.798;6.430;2022-10-23T11:13:58;99468.28;;;19.34;65.55
19286;BME280;9776;50.798;6.430;2022-10-23T11:16:28;99473.91;;;19.62;64.65
19286;BME280;9776;50.798;6.430;2022-10-23T11:19:02;99468.69;;;19.79;64.11
19286;BME280;9776;50.798;6.430;2022-10-23T11:21:36;99468.28;;;20.05;63.32
19286;BME280;9776;50.798;6.430;2022-10-23T11:27:20;99470.84;;;20.35;62.19
19286;BME280;9776;50.798;6.430;2022-10-23T11:30:18;99470.03;;;20.58;61.52
19286;BME280;9776;50.798;6.430;2022-10-23T11:33:12;99451.16;;;21.04;60.18
19286;BME280;9776;50.798;6.430;2022-10-23T11:35:54;99454.91;;;21.60;58.78
19286;BME280;9776;50.798;6.430;2022-10-23T11:38:27;99448.09;;;21.85;58.16
19286;BME280;9776;50.798;6.430;2022-10-23T11:40:58;99450.91;;;21.90;57.42
19286;BME280;9776;50.798;6.430;2022-10-23T11:43:28;99445.13;;;22.15;56.95
19286;BME280;9776;50.798;6.430;2022-10-23T11:45:56;99441.19;;;22.39;56.46
19286;BME280;9776;50.798;6.430;2022-10-23T11:48:35;99433.81;;;22.51;55.77
19286;BME280;9776;50.798;6.430;2022-10-23T11:51:04;99437.88;;;22.71;55.25
19286;BME280;9776;50.798;6.430;2022-10-23T11:53:38;99430.13;;;22.96;54.47
19286;BME280;9776;50.798;6.430;2022-10-23T11:56:25;99421.31;;;23.27;53.73
19286;BME280;9776;50.798;6.430;2022-10-23T11:58:54;99424.03;;;23.54;53.04
19286;BME280;9776;50.798;6.430;2022-10-23T12:01:35;99421.03;;;23.82;52.34
19286;BME280;9776;50.798;6.430;2022-10-23T12:04:16;99422.41;;;23.85;51.90
19286;BME280;9776;50.798;6.430;2022-10-23T12:06:49;99421.84;;;23.83;52.09
19286;BME280;9776;50.798;6.430;2022-10-23T12:09:24;99417.38;;;23.66;51.91
19286;BME280;9776;50.798;6.430;2022-10-23T12:12:12;99409.72;;;23.48;52.06
19286;BME280;9776;50.798;6.430;2022-10-23T12:14:41;99404.59;;;23.25;52.51
19286;BME280;9776;50.798;6.430;2022-10-23T12:17:31;99389.00;;;22.79;52.94
19286;BME280;9776;50.798;6.430;2022-10-23T12:20:17;99389.78;;;22.57;53.37
19286;BME280;9776;50.798;6.430;2022-10-23T12:22:54;99394.22;;;22.47;53.61
19286;BME280;9776;50.798;6.430;2022-10-23T12:25:32;99384.03;;;22.27;53.94
19286;BME280;9776;50.798;6.430;2022-10-23T12:28:05;99384.63;;;22.13;54.33
19286;BME280;9776;50.798;6.430;2022-10-23T12:30:41;99373.91;;;21.96;54.44
19286;BME280;9776;50.798;6.430;2022-10-23T12:33:17;99373.38;;;21.82;54.72
19286;BME280;9776;50.798;6.430;2022-10-23T12:36:01;99359.41;;;21.64;54.96
19286;BME280;9776;50.798;6.430;2022-10-23T12:38:42;99360.59;;;21.56;55.21
19286;BME280;9776;50.798;6.430;2022-10-23T12:41:12;99355.16;;;21.51;55.03
19286;BME280;9776;50.798;6.430;2022-10-23T12:43:41;99347.03;;;21.46;55.33
19286;BME280;9776;50.798;6.430;2022-10-23T12:46:24;99350.94;;;21.38;55.46
19286;BME280;9776;50.798;6.430;2022-10-23T12:48:54;99353.38;;;21.40;55.48
19286;BME280;9776;50.798;6.430;2022-10-23T12:51:24;99347.66;;;21.36;55.59
19286;BME280;9776;50.798;6.430;2022-10-23T12:53:53;99343.09;;;21.37;55.74
19286;BME280;9776;50.798;6.430;2022-10-23T12:56:23;99332.38;;;21.37;55.63
19286;BME280;9776;50.798;6.430;2022-10-23T13:01:23;99334.56;;;21.40;55.71
19286;BME280;9776;50.798;6.430;2022-10-23T13:03:51;99337.09;;;21.46;55.55
19286;BME280;9776;50.798;6.430;2022-10-23T13:06:21;99342.63;;;21.57;55.49
19286;BME280;9776;50.798;6.430;2022-10-23T13:08:48;99337.91;;;21.64;55.21
19286;BME280;9776;50.798;6.430;2022-10-23T13:11:19;99317.81;;;21.66;55.16
19286;BME280;9776;50.798;6.430;2022-10-23T13:13:46;99310.88;;;21.70;55.04
19286;BME280;9776;50.798;6.430;2022-10-23T13:16:14;99312.78;;;21.70;55.14
19286;BME280;9776;50.798;6.430;2022-10-23T13:18:42;99304.72;;;21.70;55.14
19286;BME280;9776;50.798;6.430;2022-10-23T13:21:15;99304.94;;;21.68;55.12
19286;BME280;9776;50.798;6.430;2022-10-23T13:23:42;99311.06;;;21.64;55.25
19286;BME280;9776;50.798;6.430;2022-10-23T13:26:24;99294.88;;;21.59;55.14
19286;BME280;9776;50.798;6.430;2022-10-23T13:28:51;99293.81;;;21.60;55.33
19286;BME280;9776;50.798;6.430;2022-10-23T13:31:24;99284.38;;;21.57;55.40
19286;BME280;9776;50.798;6.430;2022-10-23T13:34:04;99274.94;;;21.55;55.50